Terminal Aerodrome Forecast
Issued by NWS

Home | Current Version | Previous Version | Text Only | Print | Product List | Glossary On
Versions: 1 2 3 4 5 6 7 8 9 10 11 12 13 14 15 16 17 18 19 20 21 22 23 24 25 26 27 28 29 30 31 32 33 34 35 36 37 38 39 40 41 42 43 44 45 46 47 48 49
000
FTUS45 KPSR 021120
TAFIWA
TAF
KIWA 021120Z 0212/0312 14005KT P6SM BKN120 BKN250
     FM022000 24006KT P6SM SCT100 SCT150 BKN250
     FM030100 VRB06KT P6SM VCTS BKN100CB BKN150 OVC250
     FM030800 12006KT P6SM VCSH BKN120 BKN250
      AMD LTD TO CLD VIS AND WIND TIL 021300=

USA.gov is the U.S. government's official web portal to all federal, state and local government web resources and services.